Time;durP1;ratioP1;P1;durP2;ratioP2;P2;SDS_P1;SDS_P2;PMS_P1;PMS_P2;Temp;Humidity;BMP_temperature;BMP_pressure;BME280_temperature;BME280_humidity;BME280_pressure;Samples;Min_cycle;Max_cycle;Signal;HPM_P1;HPM_P2
2020/12/25 00:01:54;;;;;;;7.93;1.63;;;;;;;2.65;93.19;101984.88;6330836;22;20018;-89
2020/12/25 00:04:19;;;;;;;10.43;2.38;;;;;;;2.72;92.90;101985.50;6290464;22;20494;-89
2020/12/25 00:06:45;;;;;;;11.00;2.22;;;;;;;2.82;92.63;101988.69;6332005;22;20015;-88
2020/12/25 00:09:10;;;;;;;14.80;2.35;;;;;;;2.82;93.13;101983.38;6264991;22;20042;-89
2020/12/25 00:11:37;;;;;;;8.73;1.50;;;;;;;2.79;92.66;101977.22;6331569;22;20018;-89
2020/12/25 00:14:04;;;;;;;10.45;1.88;;;;;;;2.82;93.15;101980.72;6330990;22;20077;-88
2020/12/25 00:16:30;;;;;;;8.77;1.70;;;;;;;2.83;92.48;101993.06;6330844;22;20494;-88
2020/12/25 00:18:55;;;;;;;13.20;1.98;;;;;;;2.89;93.32;102008.81;6332396;22;20019;-89
2020/12/25 00:21:21;;;;;;;10.23;1.70;;;;;;;2.91;93.13;101998.97;6331888;22;20069;-88
2020/12/25 00:23:50;;;;;;;6.43;1.90;;;;;;;2.91;92.74;101997.16;6333126;22;20076;-89
2020/12/25 00:26:22;;;;;;;8.07;2.33;;;;;;;2.97;92.94;102014.69;6331879;22;20015;-89
2020/12/25 00:28:47;;;;;;;10.73;1.88;;;;;;;2.94;93.08;102007.69;6332921;22;20011;-89
2020/12/25 00:31:26;;;;;;;6.93;1.20;;;;;;;2.91;93.04;102017.59;6331197;22;20034;-89
2020/12/25 00:33:57;;;;;;;10.13;1.30;;;;;;;2.98;92.91;102019.94;6306493;22;20024;-90
2020/12/25 00:36:46;;;;;;;11.10;1.70;;;;;;;2.97;92.52;102014.69;6331639;22;20454;-88
2020/12/25 00:39:15;;;;;;;8.68;1.30;;;;;;;3.03;92.62;102021.56;6329646;22;20098;-88
2020/12/25 00:41:42;;;;;;;7.13;1.30;;;;;;;3.03;92.24;102021.56;6332531;22;20013;-89
2020/12/25 00:44:08;;;;;;;9.57;1.83;;;;;;;3.05;92.40;102017.94;6331327;22;20441;-89
2020/12/25 00:46:34;;;;;;;5.05;1.20;;;;;;;3.03;92.27;102014.44;6332792;22;20011;-88
2020/12/25 00:48:59;;;;;;;5.75;1.08;;;;;;;3.11;91.94;102028.34;6281226;22;20431;-88
2020/12/25 00:51:25;;;;;;;6.07;1.13;;;;;;;3.04;91.68;102024.16;6330616;22;20489;-88
2020/12/25 00:53:50;;;;;;;4.60;1.15;;;;;;;3.05;92.01;102014.38;6280054;22;20002;-88
2020/12/25 00:56:16;;;;;;;4.30;1.13;;;;;;;3.07;91.22;102023.19;6331859;22;20014;-89
2020/12/25 00:58:42;;;;;;;7.30;1.30;;;;;;;3.03;91.73;102033.06;6280033;22;20447;-87
2020/12/25 01:01:09;;;;;;;4.65;1.15;;;;;;;3.06;91.80;102043.63;6288349;22;20019;-89
2020/12/25 01:03:35;;;;;;;4.55;1.00;;;;;;;3.12;91.70;102032.75;6331812;22;20106;-89
2020/12/25 01:06:01;;;;;;;4.63;0.98;;;;;;;3.07;91.63;102029.38;6305949;22;20011;-89
2020/12/25 01:08:29;;;;;;;5.57;1.17;;;;;;;3.19;90.74;102032.50;6316870;22;20342;-89
2020/12/25 01:10:54;;;;;;;6.50;1.23;;;;;;;3.17;91.12;102029.03;6316510;22;20098;-89
2020/12/25 01:13:22;;;;;;;4.95;1.48;;;;;;;3.14;90.92;102045.97;6318928;22;20334;-89
2020/12/25 01:15:48;;;;;;;4.82;1.30;;;;;;;3.19;90.26;102037.81;6287872;22;20014;-89
2020/12/25 01:18:13;;;;;;;9.43;1.27;;;;;;;3.14;90.98;102041.50;6318352;22;20011;-89
2020/12/25 01:20:41;;;;;;;4.40;1.00;;;;;;;3.11;91.04;102046.97;6302726;22;20025;-88
2020/12/25 01:23:06;;;;;;;4.07;0.98;;;;;;;3.17;90.70;102060.97;6331410;22;20030;-88
2020/12/25 01:25:32;;;;;;;7.22;0.90;;;;;;;3.15;90.54;102058.34;6331960;22;20030;-87
2020/12/25 01:27:57;;;;;;;10.18;1.00;;;;;;;3.14;89.91;102067.25;6305492;22;20017;-89
2020/12/25 01:30:23;;;;;;;2.85;0.98;;;;;;;3.17;90.03;102067.13;6330583;22;20022;-88
2020/12/25 01:32:51;;;;;;;5.85;0.73;;;;;;;3.19;89.74;102072.41;6331131;22;20019;-90
2020/12/25 01:35:20;;;;;;;5.80;1.15;;;;;;;3.18;89.41;102083.97;6330970;22;20015;-89
2020/12/25 01:37:45;;;;;;;4.63;0.60;;;;;;;3.17;89.49;102077.78;6319614;22;20022;-89
2020/12/25 01:40:11;;;;;;;4.03;0.88;;;;;;;3.26;89.09;102079.22;6285366;22;20068;-88
2020/12/25 01:42:40;;;;;;;4.82;0.88;;;;;;;3.34;88.61;102082.44;6282475;22;20018;-89
2020/12/25 01:45:08;;;;;;;3.27;0.80;;;;;;;3.35;87.99;102089.50;6333529;22;20431;-89
2020/12/25 01:47:34;;;;;;;1.93;0.80;;;;;;;3.28;88.69;102093.31;6305524;22;20022;-89
2020/12/25 01:50:00;;;;;;;3.60;0.68;;;;;;;3.28;88.21;102096.00;6333885;22;20015;-89
2020/12/25 01:52:25;;;;;;;3.15;0.77;;;;;;;3.30;87.77;102104.81;6333036;22;20022;-89
2020/12/25 01:54:52;;;;;;;0.93;0.60;;;;;;;3.30;87.53;102096.81;6333887;22;20011;-88
2020/12/25 01:57:18;;;;;;;1.90;0.60;;;;;;;3.28;87.41;102098.66;6280421;22;20018;-88
2020/12/25 01:59:43;;;;;;;3.45;0.73;;;;;;;3.17;87.66;102098.22;6319423;22;20056;-88
2020/12/25 02:02:10;;;;;;;3.45;0.60;;;;;;;3.10;88.03;102094.91;6305638;22;20010;-89
2020/12/25 02:04:35;;;;;;;5.95;0.70;;;;;;;3.00;88.08;102099.69;6333074;22;20026;-89
2020/12/25 02:07:01;;;;;;;5.72;0.65;;;;;;;2.88;88.51;102105.47;6268509;22;20007;-89
2020/12/25 02:09:30;;;;;;;4.38;0.70;;;;;;;2.89;89.41;102109.88;6333868;22;20025;-88
2020/12/25 02:11:55;;;;;;;6.78;0.75;;;;;;;2.79;89.40;102115.50;6307983;22;20034;-89
2020/12/25 02:14:21;;;;;;;4.28;0.88;;;;;;;2.74;89.98;102117.47;6332698;22;20339;-89
2020/12/25 02:16:46;;;;;;;1.70;0.50;;;;;;;2.74;89.45;102109.47;6333165;22;20390;-89
2020/12/25 02:19:12;;;;;;;2.55;0.82;;;;;;;2.65;90.32;102112.47;6332884;22;20106;-88
2020/12/25 02:21:37;;;;;;;3.60;0.60;;;;;;;2.69;89.83;102118.53;6282070;22;20053;-89
2020/12/25 02:24:03;;;;;;;6.07;0.80;;;;;;;2.76;89.66;102131.56;6333070;22;20494;-89
2020/12/25 02:26:29;;;;;;;3.85;0.73;;;;;;;2.71;90.22;102138.84;6334240;22;20026;-89
2020/12/25 02:28:59;;;;;;;1.65;0.82;;;;;;;2.70;90.33;102128.25;6318503;22;20015;-88
2020/12/25 02:31:27;;;;;;;2.47;0.65;;;;;;;2.61;90.58;102140.09;6332737;22;20032;-89
2020/12/25 02:33:52;;;;;;;2.90;0.80;;;;;;;2.54;91.19;102142.06;6333819;22;20451;-89
2020/12/25 02:36:18;;;;;;;2.70;0.90;;;;;;;2.72;90.31;102156.50;6332962;22;20026;-89
2020/12/25 02:38:48;;;;;;;3.05;0.65;;;;;;;2.64;90.59;102153.25;6275314;22;20487;-89
2020/12/25 02:41:14;;;;;;;2.08;0.90;;;;;;;2.63;90.70;102147.09;6304167;22;20015;-88
2020/12/25 02:43:42;;;;;;;3.58;0.57;;;;;;;2.59;90.53;102141.91;6317609;22;20019;-89
2020/12/25 02:46:10;;;;;;;1.42;0.50;;;;;;;2.55;91.11;102146.47;6332317;22;20014;-89
2020/12/25 02:48:36;;;;;;;2.85;0.90;;;;;;;2.52;91.29;102148.34;6319003;22;20007;-89
2020/12/25 02:51:04;;;;;;;1.88;0.38;;;;;;;2.51;91.52;102149.28;6331852;22;20017;-89
2020/12/25 02:53:30;;;;;;;4.10;0.68;;;;;;;2.35;91.43;102152.44;6332014;22;20049;-88
2020/12/25 02:55:55;;;;;;;3.33;0.60;;;;;;;2.31;92.18;102164.09;6333447;22;20427;-88
2020/12/25 02:58:21;;;;;;;1.13;0.50;;;;;;;2.22;91.41;102167.94;6331679;22;20450;-89
2020/12/25 03:00:46;;;;;;;3.60;0.63;;;;;;;2.08;92.07;102165.72;6333049;22;20007;-89
2020/12/25 03:03:12;;;;;;;4.13;0.60;;;;;;;1.96;92.49;102159.91;6332377;22;20038;-89
2020/12/25 03:05:37;;;;;;;3.55;0.93;;;;;;;1.90;93.06;102158.34;6281468;22;20038;-89
2020/12/25 03:08:03;;;;;;;2.38;0.70;;;;;;;1.85;93.24;102160.28;6304964;22;20227;-89
2020/12/25 03:10:31;;;;;;;1.33;0.50;;;;;;;1.85;92.73;102158.47;6306548;22;20090;-89
2020/12/25 03:12:57;;;;;;;0.57;0.38;;;;;;;1.71;93.17;102150.09;6332595;22;20002;-89
2020/12/25 03:15:24;;;;;;;2.95;0.57;;;;;;;1.66;93.22;102152.84;6331398;22;20017;-89
2020/12/25 03:17:49;;;;;;;6.68;0.85;;;;;;;1.55;92.69;102157.66;6333411;22;20014;-88
2020/12/25 03:20:15;;;;;;;1.65;0.47;;;;;;;1.45;93.17;102149.06;6317055;22;20021;-88
2020/12/25 03:22:40;;;;;;;2.40;0.75;;;;;;;1.37;92.92;102151.97;6332482;22;20022;-88
2020/12/25 03:25:06;;;;;;;1.63;0.50;;;;;;;1.34;94.11;102151.16;6332547;22;20007;-88
2020/12/25 03:27:31;;;;;;;4.97;0.82;;;;;;;1.34;93.55;102152.06;6333062;22;20003;-89
2020/12/25 03:29:57;;;;;;;1.20;0.55;;;;;;;1.27;94.15;102144.31;6281183;22;20006;-89
2020/12/25 03:32:27;;;;;;;1.08;0.57;;;;;;;1.25;94.42;102148.78;6305040;22;20011;-89
2020/12/25 03:34:55;;;;;;;4.78;0.80;;;;;;;1.25;94.81;102152.28;6281209;22;20041;-88
2020/12/25 03:37:21;;;;;;;3.28;0.60;;;;;;;1.22;94.57;102157.69;6242305;22;21025;-89
2020/12/25 03:39:46;;;;;;;1.73;0.60;;;;;;;1.26;94.61;102156.69;6245182;22;20015;-88
2020/12/25 03:42:12;;;;;;;2.45;0.70;;;;;;;1.36;95.35;102160.81;6244871;22;20023;-89
2020/12/25 03:44:40;;;;;;;3.25;0.80;;;;;;;1.40;95.43;102159.81;6245171;22;20021;-88
2020/12/25 03:47:05;;;;;;;5.50;1.00;;;;;;;1.43;95.60;102155.34;6245232;22;20314;-88
2020/12/25 03:49:34;;;;;;;3.40;0.68;;;;;;;1.56;96.17;102157.59;6245262;22;20011;-88
2020/12/25 03:52:09;;;;;;;3.92;0.60;;;;;;;1.61;96.67;102165.41;6269838;22;20070;-88
2020/12/25 03:54:34;;;;;;;3.47;0.70;;;;;;;1.61;96.80;102164.56;6246229;22;20032;-88
2020/12/25 03:57:00;;;;;;;2.15;0.80;;;;;;;1.67;96.53;102159.91;6245786;22;20354;-88
2020/12/25 03:59:25;;;;;;;1.02;0.55;;;;;;;1.64;97.07;102153.84;6243990;22;20008;-88
2020/12/25 04:01:51;;;;;;;3.58;0.90;;;;;;;1.63;96.92;102160.91;6232185;22;20769;-88
2020/12/25 04:04:16;;;;;;;4.95;0.93;;;;;;;1.57;96.91;102163.75;6244860;22;20098;-89
2020/12/25 04:06:44;;;;;;;8.60;0.93;;;;;;;1.60;97.16;102162.81;6244637;22;20027;-88
2020/12/25 04:09:10;;;;;;;3.60;0.50;;;;;;;1.54;96.56;102156.75;6219658;22;20038;-88
2020/12/25 04:11:35;;;;;;;4.68;0.80;;;;;;;1.55;97.24;102155.00;6270863;22;20012;-88
2020/12/25 04:14:01;;;;;;;2.33;0.90;;;;;;;1.48;97.14;102158.75;6219000;22;20378;-88
2020/12/25 04:16:26;;;;;;;5.63;1.52;;;;;;;1.37;96.97;102159.91;6270668;22;20008;-88
2020/12/25 04:18:52;;;;;;;3.45;0.70;;;;;;;1.18;96.98;102162.22;6228492;22;20065;-89
2020/12/25 04:21:18;;;;;;;1.75;0.70;;;;;;;1.08;96.89;102173.16;6210039;22;20011;-88
2020/12/25 04:23:44;;;;;;;2.70;0.70;;;;;;;0.98;96.42;102170.72;6245077;22;20004;-88
2020/12/25 04:26:10;;;;;;;0.85;0.85;;;;;;;0.95;96.34;102167.31;6243949;22;20022;-88
2020/12/25 04:28:35;;;;;;;1.25;0.60;;;;;;;0.98;96.43;102183.97;6245365;22;20027;-88
2020/12/25 04:31:01;;;;;;;0.80;0.40;;;;;;;1.02;96.53;102182.13;6243753;22;20012;-89
2020/12/25 04:33:26;;;;;;;4.72;0.90;;;;;;;1.20;96.82;102178.09;6244855;22;20513;-88
2020/12/25 04:35:54;;;;;;;1.77;0.73;;;;;;;1.45;97.52;102183.56;6232773;22;20475;-88
2020/12/25 04:38:19;;;;;;;5.72;0.80;;;;;;;1.53;97.31;102175.38;6243738;22;20333;-88
2020/12/25 04:41:08;;;;;;;5.70;1.13;;;;;;;1.58;97.45;102178.78;6240224;22;20065;-89
2020/12/25 04:43:52;;;;;;;;;;;;;;;;;;;;;
2020/12/25 04:46:25;;;;;;;5.43;1.02;;;;;;;1.61;97.96;102185.78;6269127;22;20091;-88
2020/12/25 04:48:51;;;;;;;4.47;1.70;;;;;;;1.65;97.58;102190.06;6270288;22;20480;-89
2020/12/25 04:51:16;;;;;;;6.15;1.10;;;;;;;1.79;98.46;102198.50;6269352;22;20016;-88
2020/12/25 04:53:43;;;;;;;6.13;1.15;;;;;;;1.89;98.42;102196.44;6245275;22;20023;-88
2020/12/25 04:56:08;;;;;;;4.45;1.10;;;;;;;1.93;98.02;102195.44;6293513;22;20441;-89
2020/12/25 04:58:39;;;;;;;4.53;1.08;;;;;;;1.87;97.82;102193.81;6261401;22;20022;-88
2020/12/25 05:01:08;;;;;;;6.85;1.10;;;;;;;1.90;98.02;102198.19;6243550;22;20015;-88
2020/12/25 05:03:41;;;;;;;5.47;2.03;;;;;;;1.89;97.36;102191.13;6245172;22;20012;-88
2020/12/25 05:06:14;;;;;;;10.60;1.48;;;;;;;1.91;97.35;102198.13;6269430;22;20004;-88
2020/12/25 05:08:49;;;;;;;5.63;1.40;;;;;;;2.01;97.32;102209.31;6244762;22;20340;-89
2020/12/25 05:11:18;;;;;;;11.07;1.55;;;;;;;2.14;98.04;102206.28;6269005;22;20384;-88
2020/12/25 05:13:51;;;;;;;17.55;2.10;;;;;;;2.35;97.51;102210.03;6245238;22;20309;-89
2020/12/25 05:16:20;;;;;;;5.97;1.45;;;;;;;2.65;96.26;102210.84;6242944;22;20119;-88
2020/12/25 05:18:47;;;;;;;8.57;1.67;;;;;;;2.70;95.72;102227.47;6245233;22;20008;-86
2020/12/25 05:21:15;;;;;;;14.25;1.63;;;;;;;2.65;94.84;102224.13;6243099;22;20012;-88
2020/12/25 05:23:41;;;;;;;13.32;1.95;;;;;;;2.59;95.22;102211.00;6245328;22;20008;-88
2020/12/25 05:26:08;;;;;;;8.07;1.83;;;;;;;2.59;94.22;102214.56;6243674;22;20321;-87
2020/12/25 05:28:39;;;;;;;6.15;1.27;;;;;;;2.61;94.29;102223.34;6244247;22;20011;-87
2020/12/25 05:31:05;;;;;;;5.70;1.10;;;;;;;2.57;94.45;102220.84;6231729;22;20801;-87
2020/12/25 05:33:31;;;;;;;4.90;1.17;;;;;;;2.58;94.11;102228.75;6244805;22;20016;-88
2020/12/25 05:36:04;;;;;;;12.35;1.70;;;;;;;2.55;94.54;102230.66;6233472;22;20046;-88
2020/12/25 05:38:29;;;;;;;12.18;2.25;;;;;;;2.56;94.21;102232.38;6278158;22;20023;-87
2020/12/25 05:40:55;;;;;;;8.02;1.35;;;;;;;2.47;93.72;102235.34;6332260;22;20015;-87
2020/12/25 05:43:20;;;;;;;11.90;1.85;;;;;;;2.44;93.52;102234.53;6279152;22;20444;-88
2020/12/25 05:45:47;;;;;;;8.70;1.17;;;;;;;2.42;94.32;102240.81;6332375;22;20139;-87
2020/12/25 05:48:13;;;;;;;9.07;1.13;;;;;;;2.40;94.07;102240.88;6330977;22;20335;-88
2020/12/25 05:50:40;;;;;;;6.10;1.50;;;;;;;2.37;93.68;102251.59;6331248;22;20146;-87
2020/12/25 05:53:07;;;;;;;4.28;1.27;;;;;;;2.34;94.31;102248.16;6331110;22;20002;-87
2020/12/25 05:55:33;;;;;;;9.73;1.65;;;;;;;2.32;94.70;102250.00;6306446;22;20086;-88
2020/12/25 05:58:00;;;;;;;13.65;1.58;;;;;;;2.24;94.29;102245.78;6305614;22;20034;-88
2020/12/25 06:00:27;;;;;;;6.60;1.27;;;;;;;2.28;94.60;102254.53;6278192;22;20038;-88
2020/12/25 06:02:53;;;;;;;9.48;1.80;;;;;;;2.32;95.18;102258.81;6320160;22;20105;-88
2020/12/25 06:05:20;;;;;;;11.95;1.67;;;;;;;2.38;94.74;102266.59;6331340;22;20051;-88
2020/12/25 06:07:54;;;;;;;6.15;1.25;;;;;;;2.47;94.57;102261.91;6331930;22;20015;-88
2020/12/25 06:10:21;;;;;;;5.40;1.38;;;;;;;2.57;95.01;102264.22;6330714;22;20435;-88
2020/12/25 06:12:47;;;;;;;9.05;1.70;;;;;;;2.60;95.16;102271.25;6317561;22;20011;-87
2020/12/25 06:15:20;;;;;;;4.45;0.95;;;;;;;2.64;94.51;102270.22;6315152;22;20015;-88
2020/12/25 06:18:10;;;;;;;8.88;1.48;;;;;;;2.63;95.00;102269.38;6332394;22;20085;-88
2020/12/25 06:20:44;;;;;;;5.53;1.30;;;;;;;2.62;94.71;102272.94;6304714;22;20015;-88
2020/12/25 06:23:12;;;;;;;3.97;1.30;;;;;;;2.65;95.46;102277.28;6279239;22;20102;-89
2020/12/25 06:25:41;;;;;;;8.65;1.30;;;;;;;2.71;94.89;102271.75;6333692;22;20011;-87
2020/12/25 06:28:10;;;;;;;6.00;1.00;;;;;;;2.74;94.67;102282.28;6281531;22;20013;-88
2020/12/25 06:30:36;;;;;;;9.90;1.53;;;;;;;2.80;95.03;102284.75;6333802;22;20045;-88
2020/12/25 06:33:01;;;;;;;10.63;1.20;;;;;;;2.75;94.69;102288.47;6333256;22;20556;-88
2020/12/25 06:35:32;;;;;;;4.55;1.30;;;;;;;2.73;94.82;102287.66;6333199;22;20014;-88
2020/12/25 06:37:59;;;;;;;8.77;1.15;;;;;;;2.79;94.66;102292.78;6333987;22;20511;-88
2020/12/25 06:40:27;;;;;;;9.02;1.70;;;;;;;2.63;94.96;102298.59;6280740;22;20313;-88
2020/12/25 06:42:58;;;;;;;6.57;1.10;;;;;;;2.49;94.84;102302.59;6334465;22;20048;-87
2020/12/25 06:45:42;;;;;;;8.05;1.05;;;;;;;2.38;95.19;102294.97;6330869;22;20021;-89
2020/12/25 06:48:18;;;;;;;3.92;0.90;;;;;;;2.34;95.23;102304.84;6333113;22;20056;-88
2020/12/25 06:50:55;;;;;;;5.88;0.90;;;;;;;2.32;94.62;102305.78;6281617;22;20026;-88
2020/12/25 06:53:40;;;;;;;13.10;2.08;;;;;;;2.18;94.92;102316.81;6332662;22;20443;-88
2020/12/25 06:56:26;;;;;;;4.88;1.40;;;;;;;2.18;95.08;102307.09;6332954;22;20107;-89
2020/12/25 06:58:54;;;;;;;5.00;0.77;;;;;;;1.99;94.54;102314.72;6333435;22;20751;-88
2020/12/25 07:01:38;;;;;;;3.92;1.00;;;;;;;1.91;94.93;102316.72;6297939;22;20068;-88
2020/12/25 07:04:06;;;;;;;8.43;1.42;;;;;;;1.81;95.49;102309.94;6315759;22;20335;-89
2020/12/25 07:06:38;;;;;;;4.03;1.35;;;;;;;1.74;95.46;102310.13;6332787;22;20015;-88
2020/12/25 07:09:10;;;;;;;5.15;1.00;;;;;;;1.60;95.65;102311.41;6331667;22;20014;-88
2020/12/25 07:11:39;;;;;;;7.82;1.17;;;;;;;1.49;95.42;102320.53;6318839;22;20052;-88
2020/12/25 07:14:05;;;;;;;6.53;1.10;;;;;;;1.46;95.54;102327.69;6332380;22;20082;-88
2020/12/25 07:16:31;;;;;;;3.78;1.23;;;;;;;1.35;95.83;102326.19;6333449;22;20038;-88
2020/12/25 07:19:00;;;;;;;8.95;1.13;;;;;;;1.38;96.23;102318.19;6333030;22;20022;-89
2020/12/25 07:21:28;;;;;;;4.33;1.00;;;;;;;1.32;95.67;102325.41;6332049;22;20018;-88
2020/12/25 07:23:54;;;;;;;6.55;1.58;;;;;;;1.28;95.82;102326.41;6333187;22;20075;-88
2020/12/25 07:26:27;;;;;;;6.47;1.30;;;;;;;1.26;96.21;102329.09;6307297;22;20371;-88
2020/12/25 07:28:53;;;;;;;4.57;1.20;;;;;;;1.31;96.35;102336.94;6333067;22;20018;-88
2020/12/25 07:31:19;;;;;;;7.72;1.48;;;;;;;1.20;95.92;102332.78;6332111;22;20015;-88
2020/12/25 07:33:54;;;;;;;2.45;1.02;;;;;;;1.20;96.31;102337.22;6332813;22;20014;-88
2020/12/25 07:36:20;;;;;;;6.88;1.13;;;;;;;1.12;96.19;102336.53;6318029;22;20031;-87
2020/12/25 07:38:46;;;;;;;5.43;1.30;;;;;;;1.01;96.53;102337.66;6332379;22;20069;-87
2020/12/25 07:41:11;;;;;;;3.85;1.15;;;;;;;0.96;95.91;102334.28;6330859;22;20015;-88
2020/12/25 07:43:39;;;;;;;5.07;1.55;;;;;;;0.99;96.21;102336.00;6333397;22;20015;-88
2020/12/25 07:46:11;;;;;;;5.90;1.15;;;;;;;0.98;96.28;102336.88;6306344;22;20006;-88
2020/12/25 07:48:41;;;;;;;6.60;1.25;;;;;;;0.88;96.77;102338.88;6333178;22;20011;-88
2020/12/25 07:51:21;;;;;;;5.85;1.20;;;;;;;0.80;96.27;102344.38;6331441;22;20015;-88
2020/12/25 07:53:51;;;;;;;9.25;1.58;;;;;;;0.74;96.11;102347.19;6332685;22;20374;-87
2020/12/25 07:56:21;;;;;;;8.40;1.30;;;;;;;0.77;96.52;102354.19;6290658;22;20017;-86
2020/12/25 07:58:48;;;;;;;8.90;1.30;;;;;;;0.85;96.81;102354.88;6332512;22;20011;-87
2020/12/25 08:01:16;;;;;;;8.90;1.30;;;;;;;0.97;96.74;102349.28;6304570;22;20058;-87
2020/12/25 08:03:44;;;;;;;9.77;1.45;;;;;;;1.08;97.39;102348.16;6320554;22;20378;-87
2020/12/25 08:06:13;;;;;;;1.67;0.77;;;;;;;1.16;96.93;102362.06;6266138;22;20019;-87
2020/12/25 08:08:50;;;;;;;10.93;2.20;;;;;;;1.29;97.13;102368.81;6329802;22;20078;-87
2020/12/25 08:11:17;;;;;;;8.75;2.65;;;;;;;1.40;97.34;102371.22;6333177;22;20007;-87
2020/12/25 08:13:52;;;;;;;8.52;1.65;;;;;;;1.69;97.46;102375.75;6307077;22;20010;-87
2020/12/25 08:16:18;;;;;;;4.22;1.52;;;;;;;1.95;98.13;102375.94;6332208;22;20035;-87
2020/12/25 08:18:53;;;;;;;8.73;2.08;;;;;;;2.18;97.53;102377.91;6333363;22;20014;-87
2020/12/25 08:21:32;;;;;;;18.90;1.80;;;;;;;2.14;97.31;102376.28;6280834;22;20336;-86
2020/12/25 08:23:58;;;;;;;10.50;1.45;;;;;;;2.26;96.55;102355.53;6333235;22;20416;-86
2020/12/25 08:27:00;;;;;;;7.88;1.30;;;;;;;2.37;95.92;102360.53;6331747;22;20003;-87
2020/12/25 08:29:26;;;;;;;6.22;1.02;;;;;;;2.31;95.93;102367.81;6300779;22;20443;-87
2020/12/25 08:31:51;;;;;;;7.57;1.70;;;;;;;2.35;94.82;102366.81;6331527;22;20015;-87
2020/12/25 08:34:21;;;;;;;8.65;1.70;;;;;;;2.25;94.37;102374.16;6267119;22;20049;-88
2020/12/25 08:37:07;;;;;;;9.18;1.65;;;;;;;2.15;94.07;102378.00;6325453;22;20058;-87
2020/12/25 08:39:35;;;;;;;5.18;1.10;;;;;;;2.14;94.08;102371.84;6333240;22;20030;-88
2020/12/25 08:42:01;;;;;;;5.93;0.93;;;;;;;2.18;94.04;102365.53;6332146;22;20074;-88
2020/12/25 08:44:27;;;;;;;6.22;0.98;;;;;;;2.15;94.03;102368.28;6281373;22;20003;-88
2020/12/25 08:47:12;;;;;;;3.55;0.70;;;;;;;2.10;93.67;102371.03;6333325;22;20007;-88
2020/12/25 08:49:40;;;;;;;3.15;1.00;;;;;;;2.05;94.00;102380.94;6316659;22;20017;-88
2020/12/25 08:52:24;;;;;;;4.20;0.60;;;;;;;2.07;94.43;102381.75;6316832;22;20041;-88
2020/12/25 08:54:59;;;;;;;4.15;0.90;;;;;;;2.20;93.99;102386.72;6301108;22;20011;-88
2020/12/25 08:57:26;;;;;;;4.35;0.90;;;;;;;2.52;94.28;102392.84;6305228;22;20018;-88
2020/12/25 09:00:20;;;;;;;6.18;1.20;;;;;;;2.86;94.92;102399.81;6334152;22;20015;-88
2020/12/25 09:02:58;;;;;;;6.60;1.13;;;;;;;3.02;94.21;102409.06;6245218;22;20018;-87
2020/12/25 09:05:24;;;;;;;8.25;1.58;;;;;;;2.97;94.57;102413.63;6333267;22;20011;-87
2020/12/25 09:07:53;;;;;;;7.13;1.38;;;;;;;2.92;94.76;102418.25;6280565;22;20018;-89
2020/12/25 09:10:18;;;;;;;5.18;1.02;;;;;;;2.71;94.60;102420.66;6234793;22;20044;-87
2020/12/25 09:16:55;;;;;;;4.53;1.48;;;;;;;2.50;95.58;102418.63;6075497;23;20131;-88
2020/12/25 09:19:56;;;;;;;;;;;;;;;;;;;;;
2020/12/25 09:23:08;;;;;;;2.15;0.60;;;;;;;2.43;95.11;102405.53;5991692;23;20094;-85
2020/12/25 09:29:35;;;;;;;;;;;;;;;;;;;;;
2020/12/25 10:02:55;;;;;;;7.43;1.70;;;;;;;2.84;95.88;102414.94;5975360;22;3536772;-86
2020/12/25 10:05:46;;;;;;;3.22;0.73;;;;;;;2.89;95.34;102413.03;6056620;23;20173;-85
2020/12/25 10:08:19;;;;;;;4.03;0.98;;;;;;;2.92;95.21;102408.47;6024970;23;20081;-86
2020/12/25 10:10:44;;;;;;;7.03;1.38;;;;;;;2.96;94.85;102415.44;6070370;23;20092;-86
2020/12/25 10:13:54;;;;;;;;;;;;;;;;;;;;;
2020/12/25 10:16:46;;;;;;;5.60;1.00;;;;;;;2.94;94.60;102408.41;6073474;23;20343;-86
2020/12/25 10:19:14;;;;;;;4.63;0.98;;;;;;;2.98;94.73;102415.38;6064418;23;20022;-85
2020/12/25 10:21:40;;;;;;;4.68;1.30;;;;;;;3.09;94.33;102420.34;6077905;23;20026;-85
2020/12/25 10:24:11;;;;;;;3.85;0.90;;;;;;;3.28;93.66;102413.53;6074776;23;20041;-85
2020/12/25 10:26:39;;;;;;;1.88;0.70;;;;;;;3.41;94.13;102416.63;6091825;23;20014;-85
2020/12/25 10:29:04;;;;;;;3.75;0.80;;;;;;;3.55;93.40;102413.53;6100301;23;20122;-85
2020/12/25 10:31:30;;;;;;;3.97;0.77;;;;;;;3.66;92.89;102416.66;6101900;23;20017;-85
2020/12/25 10:33:58;;;;;;;2.90;0.80;;;;;;;3.69;92.30;102418.34;6074845;23;20026;-85
2020/12/25 10:36:32;;;;;;;6.53;0.98;;;;;;;3.66;92.19;102415.81;6112795;23;20167;-86
2020/12/25 10:39:00;;;;;;;11.35;2.65;;;;;;;3.51;92.15;102410.06;6102098;23;20368;-86
2020/12/25 10:41:34;;;;;;;4.10;0.90;;;;;;;3.41;92.05;102411.31;6082160;23;20020;-85
2020/12/25 10:43:59;;;;;;;4.93;0.88;;;;;;;3.36;92.25;102412.38;6070151;23;20092;-86
2020/12/25 10:46:26;;;;;;;6.70;1.27;;;;;;;3.33;92.01;102418.69;6099177;23;20492;-86
2020/12/25 10:49:02;;;;;;;2.38;0.77;;;;;;;3.30;92.20;102422.31;6102346;23;20444;-86
2020/12/25 10:51:36;;;;;;;7.00;1.00;;;;;;;3.32;92.54;102411.63;6101382;23;20018;-86
2020/12/25 10:54:10;;;;;;;5.40;1.23;;;;;;;3.37;92.32;102414.13;6084773;23;20022;-86
2020/12/25 10:56:41;;;;;;;8.15;1.50;;;;;;;3.36;92.95;102418.59;6076934;23;20040;-86
2020/12/25 10:59:09;;;;;;;3.25;1.15;;;;;;;3.43;92.96;102420.13;6096428;23;20020;-85
2020/12/25 11:01:37;;;;;;;5.50;1.25;;;;;;;3.48;92.87;102420.84;6088799;23;20054;-85
2020/12/25 11:04:05;;;;;;;7.18;1.88;;;;;;;3.55;92.48;102424.16;6097141;23;20013;-86
2020/12/25 11:06:45;;;;;;;5.25;2.38;;;;;;;3.59;92.47;102423.16;6080254;23;20013;-86
2020/12/25 11:09:22;;;;;;;5.25;1.65;;;;;;;3.63;92.04;102416.78;6064689;23;20026;-86
2020/12/25 11:11:53;;;;;;;8.20;2.00;;;;;;;3.72;92.26;102417.38;6075368;23;20084;-86
2020/12/25 11:18:01;;;;;;;;;;;;;;;;;;;;;
2020/12/25 11:20:27;;;;;;;6.43;2.55;;;;;;;4.04;93.04;102426.91;6076378;23;21092;-86
2020/12/25 11:23:50;;;;;;;6.47;1.58;;;;;;;4.26;92.74;102424.34;6098605;23;20040;-87
2020/12/25 11:27:06;;;;;;;4.10;1.85;;;;;;;4.48;92.07;102421.72;6005636;23;20467;-87
2020/12/25 11:29:31;;;;;;;4.22;1.42;;;;;;;4.46;91.26;102434.25;6051705;23;20022;-86
2020/12/25 11:32:00;;;;;;;6.15;1.27;;;;;;;4.49;91.11;102423.47;6090020;23;20544;-86
2020/12/25 11:34:32;;;;;;;3.77;1.03;;;;;;;4.36;89.99;102423.06;6073962;23;20051;-86
2020/12/25 11:37:26;;;;;;;8.52;2.40;;;;;;;4.30;89.42;102417.06;6083864;23;20255;-87
2020/12/25 11:40:29;;;;;;;4.40;1.83;;;;;;;4.27;88.99;102417.19;6074535;23;20040;-87
2020/12/25 11:43:22;;;;;;;5.22;1.00;;;;;;;4.16;88.82;102410.47;6064177;23;20029;-88
2020/12/25 11:46:09;;;;;;;6.50;1.00;;;;;;;4.06;88.85;102409.06;6058097;23;20025;-87
2020/12/25 11:48:55;;;;;;;6.22;1.13;;;;;;;4.07;89.72;102405.47;6082581;23;20076;-87
2020/12/25 11:51:42;;;;;;;6.53;1.15;;;;;;;4.09;90.30;102411.59;6050817;23;20024;-87
2020/12/25 11:54:08;;;;;;;3.13;1.02;;;;;;;4.21;89.75;102402.28;6036858;23;20014;-86
2020/12/25 11:57:54;;;;;;;;;;;;;;;;;;;;;
2020/12/25 12:07:27;;;;;;;6.03;1.35;;;;;;;4.48;88.74;102400.41;5975171;23;20161;-87
2020/12/25 12:10:47;;;;;;;;;;;;;;;;;;;;;
2020/12/25 12:14:21;;;;;;;6.03;1.50;;;;;;;4.64;88.37;102381.13;5857882;24;20675;-87
2020/12/25 12:27:07;;;;;;;7.70;1.15;;;;;;;4.70;86.55;102383.56;5791112;24;20384;-87
2020/12/25 12:30:08;;;;;;;;;;;;;;;;;;;;;
2020/12/25 12:32:48;;;;;;;3.78;0.93;;;;;;;4.64;86.63;102383.78;5890256;24;20399;-88
2020/12/25 12:39:07;;;;;;;6.43;1.42;;;;;;;4.67;85.24;102389.91;5903339;24;20025;-86
2020/12/25 13:50:09;;;;;;;9.77;2.42;;;;;;;4.81;85.23;102370.66;6147520;22;1427194;-90
2020/12/25 13:52:35;;;;;;;8.02;1.25;;;;;;;4.75;85.28;102368.25;6138744;23;20128;-92
2020/12/25 13:55:03;;;;;;;5.13;1.77;;;;;;;4.71;85.78;102363.97;6140828;23;20017;-91
2020/12/25 13:57:30;;;;;;;3.75;1.60;;;;;;;4.61;84.96;102363.47;6138910;23;20323;-90
2020/12/25 13:59:56;;;;;;;7.78;2.10;;;;;;;4.66;85.10;102365.94;6140834;23;20017;-91
2020/12/25 14:02:21;;;;;;;8.18;2.83;;;;;;;4.49;85.23;102364.81;6139516;23;20099;-91
2020/12/25 14:04:47;;;;;;;9.00;2.53;;;;;;;4.46;85.70;102364.94;6140509;23;20013;-91
2020/12/25 14:07:17;;;;;;;4.88;1.40;;;;;;;4.41;85.81;102364.25;6140791;23;20035;-90
2020/12/25 14:09:43;;;;;;;4.07;2.10;;;;;;;4.39;85.88;102366.97;6140844;23;20012;-92
2020/12/25 14:12:08;;;;;;;10.25;2.08;;;;;;;4.34;86.14;102365.41;6139375;23;20335;-90